createdAt,value
2022-11-30T00:01:22.513Z,40.03
2022-11-30T00:03:53.257Z,38.25
2022-11-30T00:06:23.220Z,40.40
2022-11-30T00:08:54.048Z,33.05
2022-11-30T00:11:21.880Z,40.17
2022-11-30T00:13:49.130Z,38.92
2022-11-30T00:16:16.055Z,40.53
2022-11-30T00:18:43.571Z,36.97
2022-11-30T00:21:13.739Z,40.63
2022-11-30T00:23:44.300Z,45.03
2022-11-30T00:26:14.464Z,44.92
2022-11-30T00:28:42.005Z,43.13
2022-11-30T00:31:12.785Z,35.63
2022-11-30T00:33:40.487Z,45.55
2022-11-30T00:36:12.086Z,37.20
2022-11-30T00:38:39.427Z,44.60
2022-11-30T00:41:06.957Z,44.17
2022-11-30T00:43:33.853Z,47.25
2022-11-30T00:46:00.684Z,48.92
2022-11-30T00:48:27.716Z,40.13
2022-11-30T00:50:54.647Z,39.35
2022-11-30T00:53:21.900Z,43.40
2022-11-30T00:55:49.157Z,39.13
2022-11-30T00:58:16.973Z,39.65
2022-11-30T01:00:44.505Z,36.97
2022-11-30T01:03:11.999Z,46.15
2022-11-30T01:05:39.822Z,37.42
2022-11-30T01:08:08.701Z,42.13
2022-11-30T01:10:38.235Z,41.80
2022-11-30T01:13:05.625Z,38.72
2022-11-30T01:15:38.532Z,36.55
2022-11-30T01:18:05.748Z,39.88
2022-11-30T01:20:32.783Z,44.72
2022-11-30T01:22:59.703Z,42.05
2022-11-30T01:25:26.666Z,35.85
2022-11-30T01:27:53.409Z,32.13
2022-11-30T01:30:20.326Z,37.75
2022-11-30T01:32:47.249Z,35.78
2022-11-30T01:35:14.172Z,43.33
2022-11-30T01:37:40.998Z,45.08
2022-11-30T01:40:09.897Z,39.55
2022-11-30T01:42:37.923Z,43.15
2022-11-30T01:45:07.251Z,34.30
2022-11-30T01:47:46.725Z,42.00
2022-11-30T01:50:29.379Z,47.47
2022-11-30T01:52:57.717Z,34.40
2022-11-30T01:55:35.149Z,41.13
2022-11-30T01:58:15.382Z,42.38
2022-11-30T02:00:47.012Z,48.22
2022-11-30T02:03:30.507Z,43.25
2022-11-30T02:05:57.969Z,39.60
2022-11-30T02:08:25.250Z,42.13
2022-11-30T02:11:00.848Z,44.60
2022-11-30T02:13:56.178Z,51.50
2022-11-30T02:16:43.395Z,52.25
2022-11-30T02:19:51.941Z,46.20
2022-11-30T02:22:42.182Z,44.83
2022-11-30T02:25:22.483Z,46.53
2022-11-30T02:28:30.096Z,40.35
2022-11-30T02:31:02.345Z,45.70
2022-11-30T02:33:32.273Z,40.43
2022-11-30T02:36:00.542Z,47.35
2022-11-30T02:38:28.365Z,39.55
2022-11-30T02:40:55.502Z,41.03
2022-11-30T02:43:26.484Z,38.78
2022-11-30T02:46:06.393Z,46.35
2022-11-30T02:48:53.796Z,41.03
2022-11-30T02:51:24.762Z,35.47
2022-11-30T02:53:52.494Z,45.15
2022-11-30T02:56:22.036Z,39.85
2022-11-30T02:58:48.870Z,37.83
2022-11-30T03:01:15.817Z,36.65
2022-11-30T03:03:42.747Z,44.25
2022-11-30T03:06:09.487Z,38.70
2022-11-30T03:08:36.264Z,35.55
2022-11-30T03:11:04.985Z,36.45
2022-11-30T03:13:33.383Z,36.97
2022-11-30T03:16:10.807Z,36.40
2022-11-30T03:18:38.543Z,40.20
2022-11-30T03:21:07.710Z,37.63
2022-11-30T03:23:35.503Z,37.60
2022-11-30T03:26:02.452Z,43.47
2022-11-30T03:28:29.262Z,31.13
2022-11-30T03:30:57.482Z,38.35
2022-11-30T03:33:24.995Z,36.50
2022-11-30T03:36:03.564Z,41.35
2022-11-30T03:38:30.751Z,41.63
2022-11-30T03:41:14.285Z,30.63
2022-11-30T03:43:41.109Z,37.58
2022-11-30T03:46:08.411Z,38.63
2022-11-30T03:48:36.185Z,35.72
2022-11-30T03:51:04.668Z,38.40
2022-11-30T03:53:32.085Z,39.22
2022-11-30T03:56:02.009Z,41.70
2022-11-30T03:58:29.698Z,39.63
2022-11-30T04:01:00.870Z,35.20
2022-11-30T04:03:27.928Z,41.60
2022-11-30T04:05:54.844Z,37.00
2022-11-30T04:08:21.601Z,35.28
2022-11-30T04:10:52.250Z,41.28
2022-11-30T04:13:20.495Z,35.88
2022-11-30T04:15:49.150Z,35.75
2022-11-30T04:18:17.225Z,41.17
2022-11-30T04:20:44.116Z,39.13
2022-11-30T04:23:12.036Z,36.10
2022-11-30T04:25:42.712Z,32.92
2022-11-30T04:28:10.451Z,36.03
2022-11-30T04:30:38.094Z,30.50
2022-11-30T04:33:05.305Z,33.08
2022-11-30T04:35:33.041Z,35.17
2022-11-30T04:38:01.065Z,38.63
2022-11-30T04:40:27.939Z,41.63
2022-11-30T04:42:54.944Z,37.25
2022-11-30T04:45:21.785Z,27.45
2022-11-30T04:47:48.564Z,31.35
2022-11-30T04:50:15.437Z,37.35
2022-11-30T04:52:42.184Z,36.50
2022-11-30T04:55:09.375Z,36.95
2022-11-30T04:57:36.349Z,39.85
2022-11-30T05:00:05.254Z,37.35
2022-11-30T05:02:32.301Z,37.25
2022-11-30T05:04:59.250Z,32.53
2022-11-30T05:07:26.228Z,42.72
2022-11-30T05:09:53.857Z,38.65
2022-11-30T05:12:20.647Z,36.47
2022-11-30T05:14:47.541Z,34.95
2022-11-30T05:17:14.477Z,36.78
2022-11-30T05:19:41.240Z,36.92
2022-11-30T05:22:08.136Z,37.03
2022-11-30T05:24:34.911Z,38.88
2022-11-30T05:27:01.927Z,38.45
2022-11-30T05:29:28.689Z,31.92
2022-11-30T05:31:55.460Z,39.05
2022-11-30T05:34:22.230Z,39.58
2022-11-30T05:36:48.990Z,39.63
2022-11-30T05:39:15.793Z,35.55
2022-11-30T05:41:42.582Z,32.60
2022-11-30T05:44:09.758Z,32.10
2022-11-30T05:46:40.989Z,34.35
2022-11-30T05:49:08.052Z,34.38
2022-11-30T05:51:34.806Z,33.40
2022-11-30T05:54:01.581Z,39.53
2022-11-30T05:56:28.361Z,33.72
2022-11-30T05:58:55.267Z,33.80
2022-11-30T06:01:26.703Z,36.08
2022-11-30T06:03:54.034Z,30.15
2022-11-30T06:06:21.457Z,35.03
2022-11-30T06:08:49.405Z,36.58
2022-11-30T06:11:17.216Z,35.72
2022-11-30T06:13:44.343Z,39.92
2022-11-30T06:16:11.360Z,40.38
2022-11-30T06:18:38.763Z,38.90
2022-11-30T06:21:11.334Z,41.55
2022-11-30T06:23:38.502Z,37.20
2022-11-30T06:26:07.867Z,40.38
2022-11-30T06:28:35.287Z,34.45
2022-11-30T06:31:04.411Z,34.60
2022-11-30T06:33:31.291Z,29.73
2022-11-30T06:35:58.412Z,45.40
2022-11-30T06:38:25.939Z,37.47
2022-11-30T06:40:53.682Z,36.38
2022-11-30T06:43:20.770Z,37.97
2022-11-30T06:45:47.929Z,30.20
2022-11-30T06:48:14.891Z,43.10
2022-11-30T06:50:48.434Z,31.88
2022-11-30T06:53:16.818Z,39.13
2022-11-30T06:55:43.569Z,32.83
2022-11-30T06:58:11.071Z,39.13
2022-11-30T07:00:39.201Z,34.80
2022-11-30T07:03:06.580Z,36.35
2022-11-30T07:05:39.892Z,32.47
2022-11-30T07:08:06.788Z,36.80
2022-11-30T07:10:33.720Z,30.77
2022-11-30T07:13:00.660Z,33.50
2022-11-30T07:15:27.628Z,31.67
2022-11-30T07:17:54.372Z,33.90
2022-11-30T07:20:21.183Z,33.35
2022-11-30T07:22:47.945Z,36.83
2022-11-30T07:25:33.279Z,42.60
2022-11-30T07:28:00.062Z,42.25
2022-11-30T07:30:26.832Z,34.60
2022-11-30T07:32:53.646Z,30.48
2022-11-30T07:35:20.410Z,34.42
2022-11-30T07:37:47.205Z,37.13
2022-11-30T07:40:14.017Z,31.27
2022-11-30T07:42:40.990Z,33.00
2022-11-30T07:45:08.566Z,32.65
2022-11-30T07:47:36.019Z,33.55
2022-11-30T07:50:02.824Z,31.65
2022-11-30T07:52:31.217Z,32.75
2022-11-30T07:54:58.337Z,31.48
2022-11-30T07:57:25.423Z,28.35
2022-11-30T07:59:52.244Z,27.80
2022-11-30T08:02:19.091Z,34.20
2022-11-30T08:04:46.480Z,32.47
2022-11-30T08:07:13.625Z,27.58
2022-11-30T08:09:40.490Z,32.10
2022-11-30T08:12:07.950Z,30.10
2022-11-30T08:14:50.439Z,30.02
2022-11-30T08:17:21.781Z,26.15
2022-11-30T08:19:48.557Z,32.92
2022-11-30T08:22:15.510Z,32.70
2022-11-30T08:24:42.424Z,24.60
2022-11-30T08:27:09.172Z,29.35
2022-11-30T08:29:35.921Z,31.63
2022-11-30T08:32:02.894Z,25.55
2022-11-30T08:34:29.879Z,33.50
2022-11-30T08:36:56.624Z,33.70
2022-11-30T08:39:23.456Z,32.20
2022-11-30T08:41:52.047Z,32.38
2022-11-30T08:44:19.428Z,29.30
2022-11-30T08:46:53.460Z,29.60
2022-11-30T08:49:22.947Z,31.20
2022-11-30T08:52:16.481Z,33.22
2022-11-30T08:54:42.761Z,26.65
2022-11-30T08:57:09.649Z,29.55
2022-11-30T08:59:36.968Z,24.90
2022-11-30T09:02:03.989Z,31.95
2022-11-30T09:04:30.990Z,33.25
2022-11-30T09:06:59.186Z,32.58
2022-11-30T09:09:26.297Z,34.42
2022-11-30T09:11:53.113Z,21.83
2022-11-30T09:14:19.906Z,32.22
2022-11-30T09:16:46.692Z,30.38
2022-11-30T09:19:13.450Z,29.45
2022-11-30T09:21:40.262Z,31.05
2022-11-30T09:24:07.476Z,27.90
2022-11-30T09:26:34.217Z,32.92
2022-11-30T09:29:01.020Z,32.10
2022-11-30T09:31:28.263Z,33.40
2022-11-30T09:33:58.817Z,31.83
2022-11-30T09:36:27.258Z,34.03
2022-11-30T09:38:56.629Z,33.40
2022-11-30T09:42:00.899Z,26.25
2022-11-30T09:44:51.068Z,30.35
2022-11-30T09:47:39.418Z,30.25
2022-11-30T09:50:20.253Z,31.67
2022-11-30T09:52:55.742Z,26.80
2022-11-30T09:55:33.899Z,32.00
2022-11-30T09:58:04.273Z,29.40
2022-11-30T10:00:31.888Z,29.88
2022-11-30T10:03:03.585Z,31.17
2022-11-30T10:06:09.049Z,30.30
2022-11-30T10:09:09.569Z,28.30
2022-11-30T10:12:02.193Z,29.60
2022-11-30T10:15:05.623Z,23.70
2022-11-30T10:17:55.693Z,28.55
2022-11-30T10:20:54.458Z,26.10
2022-11-30T10:23:32.766Z,28.77
2022-11-30T10:26:10.515Z,29.80
2022-11-30T10:28:51.021Z,21.15
2022-11-30T10:31:21.001Z,25.23
2022-11-30T10:33:53.183Z,31.73
2022-11-30T10:36:39.622Z,20.63
2022-11-30T10:39:27.242Z,41.67
2022-11-30T10:42:04.598Z,31.42
2022-11-30T10:44:39.792Z,35.15
2022-11-30T10:47:27.117Z,31.83
2022-11-30T10:49:53.957Z,27.50
2022-11-30T10:52:29.878Z,31.25
2022-11-30T10:55:03.761Z,31.98
2022-11-30T10:57:32.518Z,31.33
2022-11-30T11:00:05.529Z,31.02
2022-11-30T11:05:19.530Z,33.42
2022-11-30T11:08:04.474Z,31.95
2022-11-30T11:10:43.670Z,28.40
2022-11-30T11:13:35.180Z,52.85
2022-11-30T11:16:04.598Z,28.50
2022-11-30T11:18:36.816Z,28.60
2022-11-30T11:21:19.613Z,32.77
2022-11-30T11:23:50.318Z,34.47
2022-11-30T11:26:26.584Z,33.83
2022-11-30T11:28:56.071Z,29.08
2022-11-30T11:31:36.556Z,28.85
2022-11-30T11:34:05.486Z,30.70
2022-11-30T11:36:38.415Z,33.63
2022-11-30T11:39:26.030Z,28.95
2022-11-30T11:41:53.107Z,28.35
2022-11-30T11:44:22.836Z,27.77
2022-11-30T11:46:55.582Z,29.40
2022-11-30T11:49:50.749Z,24.63
2022-11-30T11:52:18.332Z,23.13
2022-11-30T11:55:01.300Z,26.67
2022-11-30T11:57:58.836Z,31.92
2022-11-30T12:00:26.337Z,27.30
2022-11-30T12:03:04.805Z,21.35
2022-11-30T12:05:37.574Z,39.05
2022-11-30T12:08:12.946Z,31.02
2022-11-30T12:11:13.823Z,29.20
2022-11-30T12:13:44.067Z,32.60
2022-11-30T12:16:17.039Z,53.15
2022-11-30T12:22:03.670Z,29.08
2022-11-30T12:24:48.732Z,28.58
2022-11-30T12:27:59.260Z,28.88
2022-11-30T12:30:44.495Z,25.63
2022-11-30T12:33:37.951Z,26.83
2022-11-30T12:36:22.549Z,26.20
2022-11-30T12:39:01.068Z,27.63
2022-11-30T12:42:07.816Z,32.50
2022-11-30T12:44:59.609Z,22.88
2022-11-30T12:47:41.287Z,27.77
2022-11-30T12:50:35.181Z,28.58
2022-11-30T12:53:20.040Z,26.20
2022-11-30T12:56:23.724Z,26.33
2022-11-30T12:59:35.288Z,25.42
2022-11-30T13:02:48.983Z,22.83
2022-11-30T13:05:35.949Z,26.67
2022-11-30T13:08:07.854Z,25.05
2022-11-30T13:10:45.021Z,27.35
2022-11-30T13:13:26.766Z,21.73
2022-11-30T13:15:54.346Z,30.75
2022-11-30T13:18:23.732Z,26.23
2022-11-30T13:21:06.439Z,25.05
2022-11-30T13:23:47.713Z,27.38
2022-11-30T13:26:57.484Z,26.10
2022-11-30T13:29:50.028Z,27.92
2022-11-30T13:32:55.211Z,18.50
2022-11-30T13:35:29.833Z,18.65
2022-11-30T13:38:35.132Z,26.77
2022-11-30T13:40:59.822Z,29.48
2022-11-30T13:43:35.634Z,30.13
2022-11-30T13:46:18.903Z,31.90
2022-11-30T13:51:34.030Z,32.55
2022-11-30T13:54:48.224Z,30.90
2022-11-30T13:57:27.536Z,32.33
2022-11-30T14:00:03.576Z,25.85
2022-11-30T14:02:41.824Z,30.33
2022-11-30T14:05:17.547Z,38.97
2022-11-30T14:08:07.092Z,31.17
2022-11-30T14:10:36.439Z,29.45
2022-11-30T14:13:10.455Z,28.88
2022-11-30T14:15:41.623Z,30.10
2022-11-30T14:18:08.312Z,31.27
2022-11-30T14:20:45.087Z,27.90
2022-11-30T14:23:17.449Z,30.17
2022-11-30T14:25:54.660Z,26.92
2022-11-30T14:28:26.008Z,33.15
2022-11-30T14:30:55.878Z,30.25
2022-11-30T14:33:55.108Z,33.13
2022-11-30T14:36:26.710Z,28.48
2022-11-30T14:38:53.663Z,37.92
2022-11-30T14:41:28.438Z,49.10
2022-11-30T14:44:14.273Z,44.88
2022-11-30T14:46:41.220Z,36.95
2022-11-30T14:49:16.754Z,35.05
2022-11-30T14:51:52.261Z,35.42
2022-11-30T14:55:07.109Z,32.38
2022-11-30T14:58:04.011Z,35.13
2022-11-30T15:00:39.742Z,32.97
2022-11-30T15:03:29.311Z,36.10
2022-11-30T15:06:03.398Z,36.35
2022-11-30T15:08:38.968Z,30.65
2022-11-30T15:11:09.883Z,27.92
2022-11-30T15:13:53.922Z,21.65
2022-11-30T15:16:25.094Z,27.98
2022-11-30T15:18:54.449Z,22.52
2022-11-30T15:21:30.735Z,23.67
2022-11-30T15:24:01.124Z,24.58
2022-11-30T15:26:58.384Z,29.05
2022-11-30T15:29:31.867Z,31.50
2022-11-30T15:32:02.140Z,21.77
2022-11-30T15:34:35.936Z,30.55
2022-11-30T15:37:03.196Z,21.80
2022-11-30T15:39:30.476Z,29.05
2022-11-30T15:42:03.468Z,36.53
2022-11-30T15:47:02.513Z,34.03
2022-11-30T15:49:32.176Z,25.38
2022-11-30T15:52:16.984Z,28.90
2022-11-30T15:54:57.520Z,22.52
2022-11-30T15:57:26.920Z,26.15
2022-11-30T16:00:23.683Z,31.63
2022-11-30T16:03:09.970Z,27.75
2022-11-30T16:05:39.533Z,29.17
2022-11-30T16:08:15.854Z,17.92
2022-11-30T16:10:43.725Z,28.73
2022-11-30T16:13:15.681Z,36.38
2022-11-30T16:15:48.651Z,24.85
2022-11-30T16:18:26.223Z,25.17
2022-11-30T16:21:03.495Z,29.45
2022-11-30T16:23:33.886Z,25.55
2022-11-30T16:26:00.734Z,28.75
2022-11-30T16:28:27.595Z,23.92
2022-11-30T16:30:59.936Z,26.83
2022-11-30T16:33:27.759Z,21.80
2022-11-30T16:36:08.370Z,29.15
2022-11-30T16:38:35.250Z,30.42
2022-11-30T16:41:24.236Z,30.75
2022-11-30T16:43:53.778Z,26.85
2022-11-30T16:46:26.842Z,30.27
2022-11-30T16:51:28.526Z,30.40
2022-11-30T16:53:56.103Z,32.47
2022-11-30T16:56:23.626Z,31.83
2022-11-30T16:58:50.688Z,36.75
2022-11-30T17:01:35.717Z,31.25
2022-11-30T17:04:24.600Z,34.05
2022-11-30T17:06:57.158Z,38.17
2022-11-30T17:09:29.793Z,69.90
2022-11-30T17:11:56.606Z,38.70
2022-11-30T17:14:23.353Z,51.00
2022-11-30T17:16:50.240Z,33.08
2022-11-30T17:19:17.095Z,26.48
2022-11-30T17:21:44.677Z,29.00
2022-11-30T17:24:12.607Z,25.02
2022-11-30T17:26:39.517Z,32.47
2022-11-30T17:29:06.555Z,26.65
2022-11-30T17:31:33.982Z,28.98
2022-11-30T17:34:00.751Z,27.63
2022-11-30T17:36:29.286Z,30.35
2022-11-30T17:38:56.631Z,28.80
2022-11-30T17:41:23.514Z,24.88
2022-11-30T17:43:50.434Z,31.38
2022-11-30T17:46:18.590Z,29.48
2022-11-30T17:48:45.759Z,29.27
2022-11-30T17:51:12.882Z,26.10
2022-11-30T17:53:41.549Z,30.65
2022-11-30T17:56:14.804Z,30.50
2022-11-30T17:58:44.537Z,27.38
2022-11-30T18:01:26.660Z,32.50
2022-11-30T18:03:55.444Z,30.08
2022-11-30T18:06:22.591Z,34.08
2022-11-30T18:08:49.468Z,31.55
2022-11-30T18:11:22.616Z,36.42
2022-11-30T18:13:53.293Z,41.83
2022-11-30T18:16:21.680Z,35.03
2022-11-30T18:18:49.033Z,34.50
2022-11-30T18:21:19.403Z,30.20
2022-11-30T18:23:47.092Z,36.72
2022-11-30T18:26:18.383Z,41.88
2022-11-30T18:28:46.051Z,43.05
2022-11-30T18:31:13.294Z,36.35
2022-11-30T18:33:40.297Z,27.00
2022-11-30T18:36:07.961Z,29.52
2022-11-30T18:38:38.508Z,27.10
2022-11-30T18:41:06.429Z,24.02
2022-11-30T18:43:34.179Z,25.70
2022-11-30T18:46:08.307Z,28.40
2022-11-30T18:48:36.378Z,38.55
2022-11-30T18:51:25.833Z,33.72
2022-11-30T18:53:58.508Z,30.77
2022-11-30T18:56:28.824Z,36.20
2022-11-30T18:59:15.657Z,31.42
2022-11-30T19:01:42.987Z,29.52
2022-11-30T19:04:11.585Z,28.85
2022-11-30T19:06:41.104Z,31.67
2022-11-30T19:09:14.395Z,32.60
2022-11-30T19:11:42.568Z,32.00
2022-11-30T19:14:13.895Z,30.80
2022-11-30T19:16:41.284Z,30.55
2022-11-30T19:19:13.834Z,31.05
2022-11-30T19:21:44.551Z,23.90
2022-11-30T19:24:11.390Z,24.65
2022-11-30T19:26:40.111Z,31.58
2022-11-30T19:29:07.879Z,29.73
2022-11-30T19:31:34.710Z,28.90
2022-11-30T19:34:07.766Z,25.33
2022-11-30T19:36:37.710Z,27.48
2022-11-30T19:39:04.764Z,32.33
2022-11-30T19:41:31.595Z,32.00
2022-11-30T19:44:04.023Z,29.45
2022-11-30T19:46:33.224Z,31.02
2022-11-30T19:49:01.701Z,33.03
2022-11-30T19:51:30.427Z,30.48
2022-11-30T19:53:59.391Z,28.67
2022-11-30T19:56:28.883Z,35.20
2022-11-30T19:59:02.728Z,31.30
2022-11-30T20:01:31.928Z,38.88
2022-11-30T20:03:58.982Z,35.22
2022-11-30T20:06:30.617Z,33.95
2022-11-30T20:08:57.489Z,34.63
2022-11-30T20:11:24.936Z,39.58
2022-11-30T20:13:52.243Z,45.95
2022-11-30T20:16:22.145Z,42.97
2022-11-30T20:18:55.348Z,34.80
2022-11-30T20:21:28.490Z,34.80
2022-11-30T20:23:59.327Z,34.90
2022-11-30T20:26:33.114Z,29.35
2022-11-30T20:29:03.103Z,32.40
2022-11-30T20:31:32.165Z,60.78
2022-11-30T20:33:59.817Z,32.95
2022-11-30T20:36:26.992Z,34.28
2022-11-30T20:38:54.191Z,32.28
2022-11-30T20:41:24.367Z,31.73
2022-11-30T20:43:52.622Z,30.05
2022-11-30T20:46:28.974Z,41.20
2022-11-30T20:48:58.012Z,33.38
2022-11-30T20:51:31.270Z,38.97
2022-11-30T20:54:02.453Z,33.95
2022-11-30T20:56:29.510Z,30.90
2022-11-30T20:58:56.701Z,37.88
2022-11-30T21:01:24.240Z,33.92
2022-11-30T21:03:51.198Z,34.28
2022-11-30T21:06:17.960Z,36.05
2022-11-30T21:08:45.021Z,38.55
2022-11-30T21:11:15.293Z,37.70
2022-11-30T21:13:44.145Z,33.70
2022-11-30T21:16:13.256Z,34.58
2022-11-30T21:18:43.516Z,32.38
2022-11-30T21:21:17.230Z,31.30
2022-11-30T21:23:45.227Z,30.02
2022-11-30T21:26:27.884Z,34.17
2022-11-30T21:29:03.358Z,36.42
2022-11-30T21:31:31.255Z,35.08
2022-11-30T21:33:58.380Z,32.47
2022-11-30T21:36:25.273Z,37.40
2022-11-30T21:39:04.603Z,39.65
2022-11-30T21:41:36.654Z,33.92
2022-11-30T21:44:05.526Z,63.25
2022-11-30T21:46:32.504Z,46.47
2022-11-30T21:49:00.160Z,45.03
2022-11-30T21:51:29.878Z,37.20
2022-11-30T21:54:03.519Z,35.50
2022-11-30T21:56:35.011Z,40.63
2022-11-30T21:59:04.548Z,32.80
2022-11-30T22:01:35.670Z,37.42
2022-11-30T22:04:04.620Z,35.20
2022-11-30T22:06:34.044Z,37.28
2022-11-30T22:09:07.825Z,33.35
2022-11-30T22:11:41.364Z,38.85
2022-11-30T22:14:13.168Z,43.00
2022-11-30T22:16:40.277Z,39.17
2022-11-30T22:19:07.634Z,36.65
2022-11-30T22:21:35.399Z,42.47
2022-11-30T22:24:06.485Z,42.65
2022-11-30T22:26:39.195Z,42.53
2022-11-30T22:29:20.049Z,41.78
2022-11-30T22:31:49.905Z,41.47
2022-11-30T22:34:16.791Z,43.80
2022-11-30T22:36:45.587Z,44.42
2022-11-30T22:39:21.003Z,37.45
2022-11-30T22:41:55.273Z,49.33
2022-11-30T22:44:24.412Z,46.00
2022-11-30T22:46:51.268Z,46.15
2022-11-30T22:49:21.158Z,37.13
2022-11-30T22:51:49.008Z,44.22
2022-11-30T22:54:15.929Z,35.45
2022-11-30T22:56:42.863Z,46.05
2022-11-30T22:59:13.717Z,46.00
2022-11-30T23:01:46.811Z,37.38
2022-11-30T23:06:47.386Z,48.05
2022-11-30T23:09:20.394Z,46.20
2022-11-30T23:11:48.158Z,46.50
2022-11-30T23:14:16.304Z,45.25
2022-11-30T23:16:43.958Z,39.80
2022-11-30T23:19:12.408Z,43.78
2022-11-30T23:21:42.302Z,42.38
2022-11-30T23:24:17.307Z,49.63
2022-11-30T23:26:44.560Z,42.63
2022-11-30T23:29:14.821Z,45.97
2022-11-30T23:31:43.448Z,43.65
2022-11-30T23:34:17.836Z,43.38
2022-11-30T23:36:45.204Z,48.78
2022-11-30T23:39:16.377Z,47.00
2022-11-30T23:41:43.828Z,48.78
2022-11-30T23:44:12.154Z,36.55
2022-11-30T23:46:39.508Z,46.35
2022-11-30T23:49:06.807Z,38.92
2022-11-30T23:51:33.720Z,42.53
2022-11-30T23:54:00.463Z,46.03
2022-11-30T23:56:27.341Z,47.45
2022-11-30T23:58:54.111Z,45.70
